sensor_id;sensor_type;location;lat;lon;timestamp;temperature;humidity
69281;SHT31;56392;51.082;17.080;2023-08-06T00:04:14;16.85;91.61
69281;SHT31;56392;51.082;17.080;2023-08-06T00:09:39;16.82;91.47
69281;SHT31;56392;51.082;17.080;2023-08-06T00:15:03;16.88;91.24
69281;SHT31;56392;51.082;17.080;2023-08-06T00:20:26;16.82;90.94
69281;SHT31;56392;51.082;17.080;2023-08-06T00:25:51;16.82;91.00
69281;SHT31;56392;51.082;17.080;2023-08-06T00:31:14;16.82;90.69
69281;SHT31;56392;51.082;17.080;2023-08-06T00:36:38;16.89;90.76
69281;SHT31;56392;51.082;17.080;2023-08-06T00:42:04;16.77;90.44
69281;SHT31;56392;51.082;17.080;2023-08-06T00:47:27;16.74;90.66
69281;SHT31;56392;51.082;17.080;2023-08-06T00:52:51;16.67;90.59
69281;SHT31;56392;51.082;17.080;2023-08-06T00:58:16;16.65;90.76
69281;SHT31;56392;51.082;17.080;2023-08-06T01:03:39;16.74;90.92
69281;SHT31;56392;51.082;17.080;2023-08-06T01:09:09;16.74;90.83
69281;SHT31;56392;51.082;17.080;2023-08-06T01:14:44;16.63;90.86
69281;SHT31;56392;51.082;17.080;2023-08-06T01:20:09;16.70;91.13
69281;SHT31;56392;51.082;17.080;2023-08-06T01:25:38;16.50;90.66
69281;SHT31;56392;51.082;17.080;2023-08-06T01:31:06;16.64;91.18
69281;SHT31;56392;51.082;17.080;2023-08-06T01:36:32;16.64;91.17
69281;SHT31;56392;51.082;17.080;2023-08-06T01:41:57;16.71;91.26
69281;SHT31;56392;51.082;17.080;2023-08-06T01:47:20;16.72;90.97
69281;SHT31;56392;51.082;17.080;2023-08-06T01:52:43;16.71;90.61
69281;SHT31;56392;51.082;17.080;2023-08-06T01:58:07;16.72;90.98
69281;SHT31;56392;51.082;17.080;2023-08-06T02:03:30;16.68;90.62
69281;SHT31;56392;51.082;17.080;2023-08-06T02:08:53;16.68;90.66
69281;SHT31;56392;51.082;17.080;2023-08-06T02:14:17;16.53;90.58
69281;SHT31;56392;51.082;17.080;2023-08-06T02:19:40;16.34;91.21
69281;SHT31;56392;51.082;17.080;2023-08-06T02:25:05;16.37;91.37
69281;SHT31;56392;51.082;17.080;2023-08-06T02:30:29;16.40;91.30
69281;SHT31;56392;51.082;17.080;2023-08-06T02:35:59;16.47;91.33
69281;SHT31;56392;51.082;17.080;2023-08-06T02:41:22;16.46;91.11
69281;SHT31;56392;51.082;17.080;2023-08-06T02:46:49;16.46;90.69
69281;SHT31;56392;51.082;17.080;2023-08-06T02:52:12;16.43;90.01
69281;SHT31;56392;51.082;17.080;2023-08-06T02:57:35;16.47;89.99
69281;SHT31;56392;51.082;17.080;2023-08-06T03:02:59;16.44;89.92
69281;SHT31;56392;51.082;17.080;2023-08-06T03:08:22;16.43;89.94
69281;SHT31;56392;51.082;17.080;2023-08-06T03:13:46;16.46;90.31
69281;SHT31;56392;51.082;17.080;2023-08-06T03:19:11;16.19;90.44
69281;SHT31;56392;51.082;17.080;2023-08-06T03:24:33;16.24;90.45
69281;SHT31;56392;51.082;17.080;2023-08-06T03:29:57;16.17;89.97
69281;SHT31;56392;51.082;17.080;2023-08-06T03:35:23;16.20;90.03
69281;SHT31;56392;51.082;17.080;2023-08-06T03:40:46;16.13;89.74
69281;SHT31;56392;51.082;17.080;2023-08-06T03:46:09;16.12;90.18
69281;SHT31;56392;51.082;17.080;2023-08-06T03:51:33;16.16;90.25
69281;SHT31;56392;51.082;17.080;2023-08-06T03:56:56;16.05;90.10
69281;SHT31;56392;51.082;17.080;2023-08-06T04:02:20;16.00;90.33
69281;SHT31;56392;51.082;17.080;2023-08-06T04:07:44;16.03;91.02
69281;SHT31;56392;51.082;17.080;2023-08-06T04:13:07;15.98;90.97
69281;SHT31;56392;51.082;17.080;2023-08-06T04:18:30;16.06;91.19
69281;SHT31;56392;51.082;17.080;2023-08-06T04:23:55;16.00;90.79
69281;SHT31;56392;51.082;17.080;2023-08-06T04:29:18;15.98;90.77
69281;SHT31;56392;51.082;17.080;2023-08-06T04:34:41;15.95;91.02
69281;SHT31;56392;51.082;17.080;2023-08-06T04:40:09;16.00;90.89
69281;SHT31;56392;51.082;17.080;2023-08-06T04:45:32;15.96;90.85
69281;SHT31;56392;51.082;17.080;2023-08-06T04:50:55;15.96;90.67
69281;SHT31;56392;51.082;17.080;2023-08-06T04:56:19;15.93;91.74
69281;SHT31;56392;51.082;17.080;2023-08-06T05:01:42;15.81;91.60
69281;SHT31;56392;51.082;17.080;2023-08-06T05:07:06;15.88;91.89
69281;SHT31;56392;51.082;17.080;2023-08-06T05:12:30;15.91;92.17
69281;SHT31;56392;51.082;17.080;2023-08-06T05:17:53;15.95;91.98
69281;SHT31;56392;51.082;17.080;2023-08-06T05:23:16;15.89;91.53
69281;SHT31;56392;51.082;17.080;2023-08-06T05:28:40;15.88;91.45
69281;SHT31;56392;51.082;17.080;2023-08-06T05:34:04;15.93;91.28
69281;SHT31;56392;51.082;17.080;2023-08-06T05:39:27;15.98;90.99
69281;SHT31;56392;51.082;17.080;2023-08-06T05:44:51;15.81;90.90
69281;SHT31;56392;51.082;17.080;2023-08-06T05:50:15;15.78;91.43
69281;SHT31;56392;51.082;17.080;2023-08-06T05:55:39;15.78;91.62
69281;SHT31;56392;51.082;17.080;2023-08-06T06:01:03;15.73;91.97
69281;SHT31;56392;51.082;17.080;2023-08-06T06:06:26;15.72;91.96
69281;SHT31;56392;51.082;17.080;2023-08-06T06:11:49;15.79;92.01
69281;SHT31;56392;51.082;17.080;2023-08-06T06:17:14;15.79;92.01
69281;SHT31;56392;51.082;17.080;2023-08-06T06:22:37;15.85;91.97
69281;SHT31;56392;51.082;17.080;2023-08-06T06:28:00;15.89;91.79
69281;SHT31;56392;51.082;17.080;2023-08-06T06:33:25;15.88;91.85
69281;SHT31;56392;51.082;17.080;2023-08-06T06:38:48;15.95;91.85
69281;SHT31;56392;51.082;17.080;2023-08-06T06:44:11;15.99;91.38
69281;SHT31;56392;51.082;17.080;2023-08-06T06:49:40;15.96;91.27
69281;SHT31;56392;51.082;17.080;2023-08-06T06:55:03;16.05;91.20
69281;SHT31;56392;51.082;17.080;2023-08-06T07:00:26;16.00;91.42
69281;SHT31;56392;51.082;17.080;2023-08-06T07:05:50;16.10;91.31
69281;SHT31;56392;51.082;17.080;2023-08-06T07:11:15;16.08;91.28
69281;SHT31;56392;51.082;17.080;2023-08-06T07:16:38;16.06;91.09
69281;SHT31;56392;51.082;17.080;2023-08-06T07:22:02;16.03;91.11
69281;SHT31;56392;51.082;17.080;2023-08-06T07:27:25;16.06;91.29
69281;SHT31;56392;51.082;17.080;2023-08-06T07:32:48;16.14;91.12
69281;SHT31;56392;51.082;17.080;2023-08-06T07:38:13;16.09;90.78
69281;SHT31;56392;51.082;17.080;2023-08-06T07:43:38;16.06;90.76
69281;SHT31;56392;51.082;17.080;2023-08-06T07:49:01;16.05;90.64
69281;SHT31;56392;51.082;17.080;2023-08-06T07:54:25;16.12;91.08
69281;SHT31;56392;51.082;17.080;2023-08-06T07:59:50;16.08;91.18
69281;SHT31;56392;51.082;17.080;2023-08-06T08:05:15;16.00;91.48
69281;SHT31;56392;51.082;17.080;2023-08-06T08:10:39;16.05;90.86
69281;SHT31;56392;51.082;17.080;2023-08-06T08:16:03;16.08;90.65
69281;SHT31;56392;51.082;17.080;2023-08-06T08:21:26;16.09;90.93
69281;SHT31;56392;51.082;17.080;2023-08-06T08:26:50;16.19;90.78
69281;SHT31;56392;51.082;17.080;2023-08-06T08:32:14;16.27;90.94
69281;SHT31;56392;51.082;17.080;2023-08-06T08:37:38;16.34;90.93
69281;SHT31;56392;51.082;17.080;2023-08-06T08:43:03;16.37;90.61
69281;SHT31;56392;51.082;17.080;2023-08-06T08:48:27;16.43;90.70
69281;SHT31;56392;51.082;17.080;2023-08-06T08:53:53;16.33;90.16
69281;SHT31;56392;51.082;17.080;2023-08-06T08:59:19;16.40;90.57
69281;SHT31;56392;51.082;17.080;2023-08-06T09:04:43;16.43;90.57
69281;SHT31;56392;51.082;17.080;2023-08-06T09:10:11;16.43;90.37
69281;SHT31;56392;51.082;17.080;2023-08-06T09:15:36;16.43;90.21
69281;SHT31;56392;51.082;17.080;2023-08-06T09:20:59;16.37;89.83
69281;SHT31;56392;51.082;17.080;2023-08-06T09:26:22;16.33;90.20
69281;SHT31;56392;51.082;17.080;2023-08-06T09:31:49;16.32;90.45
69281;SHT31;56392;51.082;17.080;2023-08-06T09:37:14;16.33;90.56
69281;SHT31;56392;51.082;17.080;2023-08-06T09:42:37;16.32;90.36
69281;SHT31;56392;51.082;17.080;2023-08-06T09:48:03;16.33;90.10
69281;SHT31;56392;51.082;17.080;2023-08-06T09:53:26;16.32;90.29
69281;SHT31;56392;51.082;17.080;2023-08-06T09:58:50;16.32;90.66
69281;SHT31;56392;51.082;17.080;2023-08-06T10:04:15;16.26;90.89
69281;SHT31;56392;51.082;17.080;2023-08-06T10:09:40;16.19;90.76
69281;SHT31;56392;51.082;17.080;2023-08-06T10:15:06;16.22;90.85
69281;SHT31;56392;51.082;17.080;2023-08-06T10:20:34;16.29;90.89
69281;SHT31;56392;51.082;17.080;2023-08-06T10:25:57;16.34;90.89
69281;SHT31;56392;51.082;17.080;2023-08-06T10:31:54;16.34;90.65
69281;SHT31;56392;51.082;17.080;2023-08-06T10:37:20;16.40;90.60
69281;SHT31;56392;51.082;17.080;2023-08-06T10:42:43;16.46;90.54
69281;SHT31;56392;51.082;17.080;2023-08-06T10:48:07;16.41;90.98
69281;SHT31;56392;51.082;17.080;2023-08-06T10:53:31;16.37;90.67
69281;SHT31;56392;51.082;17.080;2023-08-06T10:58:55;16.43;90.91
69281;SHT31;56392;51.082;17.080;2023-08-06T11:04:19;16.60;91.16
69281;SHT31;56392;51.082;17.080;2023-08-06T11:09:43;16.74;91.41
69281;SHT31;56392;51.082;17.080;2023-08-06T11:15:07;16.74;91.13
69281;SHT31;56392;51.082;17.080;2023-08-06T11:20:30;16.87;91.75
69281;SHT31;56392;51.082;17.080;2023-08-06T11:25:56;16.87;90.99
69281;SHT31;56392;51.082;17.080;2023-08-06T11:31:19;16.88;90.56
69281;SHT31;56392;51.082;17.080;2023-08-06T11:36:43;16.92;89.97
69281;SHT31;56392;51.082;17.080;2023-08-06T11:42:07;16.96;90.16
69281;SHT31;56392;51.082;17.080;2023-08-06T11:47:30;16.89;89.45
69281;SHT31;56392;51.082;17.080;2023-08-06T11:52:55;16.85;90.02
69281;SHT31;56392;51.082;17.080;2023-08-06T11:58:20;16.65;89.92
69281;SHT31;56392;51.082;17.080;2023-08-06T12:03:43;16.70;90.24
69281;SHT31;56392;51.082;17.080;2023-08-06T12:09:06;16.63;90.20
69281;SHT31;56392;51.082;17.080;2023-08-06T12:14:31;16.63;89.95
69281;SHT31;56392;51.082;17.080;2023-08-06T12:19:54;16.65;89.27
69281;SHT31;56392;51.082;17.080;2023-08-06T12:25:17;16.61;89.88
69281;SHT31;56392;51.082;17.080;2023-08-06T12:30:42;16.65;90.10
69281;SHT31;56392;51.082;17.080;2023-08-06T12:36:06;16.59;90.38
69281;SHT31;56392;51.082;17.080;2023-08-06T12:41:29;16.56;90.55
69281;SHT31;56392;51.082;17.080;2023-08-06T12:46:54;16.63;90.85
69281;SHT31;56392;51.082;17.080;2023-08-06T12:52:17;16.60;91.08
69281;SHT31;56392;51.082;17.080;2023-08-06T12:57:41;16.51;90.75
69281;SHT31;56392;51.082;17.080;2023-08-06T13:03:05;16.64;91.26
69281;SHT31;56392;51.082;17.080;2023-08-06T13:08:29;16.75;91.20
69281;SHT31;56392;51.082;17.080;2023-08-06T13:13:52;16.82;90.94
69281;SHT31;56392;51.082;17.080;2023-08-06T13:19:18;16.82;90.33
69281;SHT31;56392;51.082;17.080;2023-08-06T13:24:42;16.75;89.59
69281;SHT31;56392;51.082;17.080;2023-08-06T13:30:06;16.75;90.15
69281;SHT31;56392;51.082;17.080;2023-08-06T13:35:30;16.78;90.01
69281;SHT31;56392;51.082;17.080;2023-08-06T13:40:54;16.72;89.88
69281;SHT31;56392;51.082;17.080;2023-08-06T13:46:18;16.78;89.99
69281;SHT31;56392;51.082;17.080;2023-08-06T13:51:42;16.81;89.81
69281;SHT31;56392;51.082;17.080;2023-08-06T13:57:05;16.82;90.10
69281;SHT31;56392;51.082;17.080;2023-08-06T14:02:28;16.80;90.13
69281;SHT31;56392;51.082;17.080;2023-08-06T14:07:53;16.72;90.13
69281;SHT31;56392;51.082;17.080;2023-08-06T14:13:16;16.74;90.51
69281;SHT31;56392;51.082;17.080;2023-08-06T14:18:40;16.70;90.56
69281;SHT31;56392;51.082;17.080;2023-08-06T14:24:04;16.72;90.80
69281;SHT31;56392;51.082;17.080;2023-08-06T14:29:27;16.77;90.68
69281;SHT31;56392;51.082;17.080;2023-08-06T14:34:50;16.82;90.01
69281;SHT31;56392;51.082;17.080;2023-08-06T14:40:15;16.88;89.94
69281;SHT31;56392;51.082;17.080;2023-08-06T14:45:38;16.96;90.38
69281;SHT31;56392;51.082;17.080;2023-08-06T14:51:01;16.88;90.70
69281;SHT31;56392;51.082;17.080;2023-08-06T14:56:27;16.98;90.84
69281;SHT31;56392;51.082;17.080;2023-08-06T15:01:51;17.10;91.00
69281;SHT31;56392;51.082;17.080;2023-08-06T15:07:14;16.96;90.59
69281;SHT31;56392;51.082;17.080;2023-08-06T15:12:39;17.07;89.97
69281;SHT31;56392;51.082;17.080;2023-08-06T15:18:02;17.10;89.58
69281;SHT31;56392;51.082;17.080;2023-08-06T15:23:27;17.04;89.06
69281;SHT31;56392;51.082;17.080;2023-08-06T15:28:52;16.96;88.98
69281;SHT31;56392;51.082;17.080;2023-08-06T15:34:15;16.87;89.06
69281;SHT31;56392;51.082;17.080;2023-08-06T15:39:38;16.80;89.21
69281;SHT31;56392;51.082;17.080;2023-08-06T15:45:04;16.78;88.94
69281;SHT31;56392;51.082;17.080;2023-08-06T15:50:27;16.74;89.09
69281;SHT31;56392;51.082;17.080;2023-08-06T15:55:51;16.70;89.07
69281;SHT31;56392;51.082;17.080;2023-08-06T16:01:16;16.70;88.69
69281;SHT31;56392;51.082;17.080;2023-08-06T16:06:39;16.68;88.48
69281;SHT31;56392;51.082;17.080;2023-08-06T16:12:02;16.65;88.81
69281;SHT31;56392;51.082;17.080;2023-08-06T16:17:27;16.67;88.52
69281;SHT31;56392;51.082;17.080;2023-08-06T16:22:52;16.67;88.42
69281;SHT31;56392;51.082;17.080;2023-08-06T16:28:15;16.67;88.14
69281;SHT31;56392;51.082;17.080;2023-08-06T16:33:40;16.60;87.90
69281;SHT31;56392;51.082;17.080;2023-08-06T16:39:04;16.59;87.72
69281;SHT31;56392;51.082;17.080;2023-08-06T16:44:29;16.51;87.84
69281;SHT31;56392;51.082;17.080;2023-08-06T16:49:55;16.47;87.98
69281;SHT31;56392;51.082;17.080;2023-08-06T16:55:18;16.46;88.11
69281;SHT31;56392;51.082;17.080;2023-08-06T17:00:43;16.43;87.67
69281;SHT31;56392;51.082;17.080;2023-08-06T17:06:08;16.47;87.56
69281;SHT31;56392;51.082;17.080;2023-08-06T17:11:35;16.49;87.62
69281;SHT31;56392;51.082;17.080;2023-08-06T17:16:58;16.43;87.44
69281;SHT31;56392;51.082;17.080;2023-08-06T17:22:23;16.40;87.57
69281;SHT31;56392;51.082;17.080;2023-08-06T17:27:46;16.33;88.00
69281;SHT31;56392;51.082;17.080;2023-08-06T17:33:10;16.20;88.07
69281;SHT31;56392;51.082;17.080;2023-08-06T17:38:35;16.16;88.39
69281;SHT31;56392;51.082;17.080;2023-08-06T17:43:58;16.19;88.20
69281;SHT31;56392;51.082;17.080;2023-08-06T17:49:21;16.06;88.11
69281;SHT31;56392;51.082;17.080;2023-08-06T17:54:45;16.03;88.02
69281;SHT31;56392;51.082;17.080;2023-08-06T18:00:09;15.92;87.85
69281;SHT31;56392;51.082;17.080;2023-08-06T18:05:33;15.96;88.19
69281;SHT31;56392;51.082;17.080;2023-08-06T18:10:58;15.88;88.32
69281;SHT31;56392;51.082;17.080;2023-08-06T18:16:21;15.83;88.10
69281;SHT31;56392;51.082;17.080;2023-08-06T18:21:44;15.83;88.35
69281;SHT31;56392;51.082;17.080;2023-08-06T18:27:08;15.85;88.32
69281;SHT31;56392;51.082;17.080;2023-08-06T18:32:32;15.85;87.89
69281;SHT31;56392;51.082;17.080;2023-08-06T18:37:55;15.89;88.00
69281;SHT31;56392;51.082;17.080;2023-08-06T18:43:21;15.96;88.11
69281;SHT31;56392;51.082;17.080;2023-08-06T18:48:45;15.91;88.29
69281;SHT31;56392;51.082;17.080;2023-08-06T18:54:08;15.86;88.49
69281;SHT31;56392;51.082;17.080;2023-08-06T18:59:32;15.89;88.53
69281;SHT31;56392;51.082;17.080;2023-08-06T19:04:56;15.98;88.32
69281;SHT31;56392;51.082;17.080;2023-08-06T19:10:19;16.00;88.00
69281;SHT31;56392;51.082;17.080;2023-08-06T19:15:47;16.06;87.45
69281;SHT31;56392;51.082;17.080;2023-08-06T19:21:11;16.06;87.35
69281;SHT31;56392;51.082;17.080;2023-08-06T19:26:34;15.98;87.75
69281;SHT31;56392;51.082;17.080;2023-08-06T19:31:59;15.91;88.35
69281;SHT31;56392;51.082;17.080;2023-08-06T19:37:22;15.98;88.21
69281;SHT31;56392;51.082;17.080;2023-08-06T19:42:46;15.88;88.71
69281;SHT31;56392;51.082;17.080;2023-08-06T19:48:10;15.96;88.31
69281;SHT31;56392;51.082;17.080;2023-08-06T19:53:48;15.95;88.08
69281;SHT31;56392;51.082;17.080;2023-08-06T19:59:11;15.98;87.98
69281;SHT31;56392;51.082;17.080;2023-08-06T20:04:35;15.95;87.97
69281;SHT31;56392;51.082;17.080;2023-08-06T20:09:58;15.92;88.35
69281;SHT31;56392;51.082;17.080;2023-08-06T20:15:21;15.96;87.96
69281;SHT31;56392;51.082;17.080;2023-08-06T20:20:46;16.06;87.96
69281;SHT31;56392;51.082;17.080;2023-08-06T20:26:09;16.06;87.81
69281;SHT31;56392;51.082;17.080;2023-08-06T20:31:35;16.06;87.65
69281;SHT31;56392;51.082;17.080;2023-08-06T20:37:00;16.08;87.44
69281;SHT31;56392;51.082;17.080;2023-08-06T20:42:24;16.08;87.49
69281;SHT31;56392;51.082;17.080;2023-08-06T20:47:47;16.02;87.21
69281;SHT31;56392;51.082;17.080;2023-08-06T20:53:11;16.03;87.53
69281;SHT31;56392;51.082;17.080;2023-08-06T20:58:37;15.99;87.29
69281;SHT31;56392;51.082;17.080;2023-08-06T21:04:00;16.00;87.36
69281;SHT31;56392;51.082;17.080;2023-08-06T21:09:25;16.09;87.16
69281;SHT31;56392;51.082;17.080;2023-08-06T21:14:51;16.05;87.35
69281;SHT31;56392;51.082;17.080;2023-08-06T21:20:15;16.10;87.39
69281;SHT31;56392;51.082;17.080;2023-08-06T21:25:40;16.05;87.44
69281;SHT31;56392;51.082;17.080;2023-08-06T21:31:05;16.00;87.08
69281;SHT31;56392;51.082;17.080;2023-08-06T21:36:30;15.88;87.82
69281;SHT31;56392;51.082;17.080;2023-08-06T21:41:56;15.77;88.12
69281;SHT31;56392;51.082;17.080;2023-08-06T21:47:19;15.79;87.79
69281;SHT31;56392;51.082;17.080;2023-08-06T21:52:42;15.78;87.77
69281;SHT31;56392;51.082;17.080;2023-08-06T21:58:06;15.77;88.02
69281;SHT31;56392;51.082;17.080;2023-08-06T22:03:30;15.66;88.26
69281;SHT31;56392;51.082;17.080;2023-08-06T22:08:53;15.68;88.05
69281;SHT31;56392;51.082;17.080;2023-08-06T22:14:18;15.68;87.97
69281;SHT31;56392;51.082;17.080;2023-08-06T22:19:41;15.71;87.85
69281;SHT31;56392;51.082;17.080;2023-08-06T22:25:06;15.75;87.61
69281;SHT31;56392;51.082;17.080;2023-08-06T22:30:30;15.69;87.35
69281;SHT31;56392;51.082;17.080;2023-08-06T22:35:53;15.63;87.35
69281;SHT31;56392;51.082;17.080;2023-08-06T22:41:18;15.65;87.70
69281;SHT31;56392;51.082;17.080;2023-08-06T22:46:45;15.66;87.34
69281;SHT31;56392;51.082;17.080;2023-08-06T22:52:09;15.69;87.16
69281;SHT31;56392;51.082;17.080;2023-08-06T22:57:32;15.61;87.46
69281;SHT31;56392;51.082;17.080;2023-08-06T23:02:56;15.55;87.23
69281;SHT31;56392;51.082;17.080;2023-08-06T23:08:19;15.54;87.53
69281;SHT31;56392;51.082;17.080;2023-08-06T23:13:42;15.55;87.43
69281;SHT31;56392;51.082;17.080;2023-08-06T23:19:07;15.48;87.46
69281;SHT31;56392;51.082;17.080;2023-08-06T23:24:30;15.44;87.63
69281;SHT31;56392;51.082;17.080;2023-08-06T23:29:53;15.45;87.02
69281;SHT31;56392;51.082;17.080;2023-08-06T23:35:17;15.38;87.26
69281;SHT31;56392;51.082;17.080;2023-08-06T23:40:40;15.37;87.13
69281;SHT31;56392;51.082;17.080;2023-08-06T23:46:04;15.42;87.41
69281;SHT31;56392;51.082;17.080;2023-08-06T23:51:29;15.44;87.19
69281;SHT31;56392;51.082;17.080;2023-08-06T23:56:52;15.45;87.12
